Overview Statistics Trail Chart Weather Telemetry Raw packets
 

This is the latest recevied weather packets stored in our database for station/object OE6ATD-13. If no packets are shown the sender has not sent any weather packets the latest 10 day(s).

<< 47 48 49 50 51 52 53 >>
Time Temp. Humidity Pressure Rain* Wind** Luminosity Snow
1787975428 21.67° C 52% 1015.2 hPa 0 mm - 0 W/m² -
1787974824 22.22° C 50% 1015 hPa 0 mm - 0 W/m² -
1787974219 22.22° C 46% 1014.6 hPa 0 mm - 0 W/m² -
1787973615 22.22° C 49% 1014.3 hPa 0 mm - 0 W/m² -
1787973030 22.78° C 51% 1014.2 hPa 0 mm - 0 W/m² -
1787972426 22.78° C 58% 1014.1 hPa 0 mm - 0 W/m² -
1787971822 22.78° C 62% 1013.9 hPa 0 mm - 0 W/m² -
1787971217 22.78° C 68% 1013.5 hPa 0 mm - 0 W/m² -
1787970628 22.78° C 70% 1013.1 hPa 0 mm - 0 W/m² -
1787970024 22.78° C 70% 1012.9 hPa 0 mm - 0 W/m² -
1787969419 22.78° C 69% 1012.8 hPa 0 mm - 0 W/m² -
1787968815 23.33° C 66% 1012.9 hPa 0 mm - 0 W/m² -
1787968226 24.44° C 62% 1013 hPa 0 mm - 0 W/m² -
1787967622 24.44° C 60% 1013.1 hPa 0 mm - 0 W/m² -
1787967017 25° C 59% 1012.7 hPa 0 mm - 0 W/m² -
1787966427 25° C 57% 1012.6 hPa 0 mm - 0 W/m² -
1787965824 24.44° C 60% 1012.4 hPa 0 mm - 0 W/m² -
1787965219 23.33° C 65% 1011.7 hPa 0 mm - 0 W/m² -
1787964615 22.78° C 66% 1011.4 hPa 0 mm - 0 W/m² -
1787964026 23.33° C 64% 1011.3 hPa 0 mm - 0 W/m² -
1787963429 23.33° C 62% 1011.1 hPa 0 mm - 0 W/m² -
1787962825 23.33° C 66% 1011 hPa 0 mm - 0 W/m² -
1787962220 22.22° C 75% 1011.1 hPa 0 mm - 0 W/m² -
1787961623 21.67° C 79% 1011.3 hPa 0 mm - 0 W/m² -
1787961028 21.67° C 79% 1011.6 hPa 0 mm - 0 W/m² -

* Rain latest hour (hover to see other rain measurements)
** Current wind speed in m/s (hover to see current wind gust speed)